Time;durP1;ratioP1;P1;durP2;ratioP2;P2;SDS_P1;SDS_P2;PMS_P1;PMS_P2;Temp;Humidity;BMP_temperature;BMP_pressure;BME280_temperature;BME280_humidity;BME280_pressure;Samples;Min_cycle;Max_cycle;Signal;HPM_P1;HPM_P2
2022/11/03 00:01:08;;;;;;;8.07;1.65;;;;;;;;;;5091871;28;20103;-74
2022/11/03 00:03:34;;;;;;;5.25;1.30;;;;;;;;;;5092120;28;20436;-74
2022/11/03 00:06:05;;;;;;;4.97;1.60;;;;;;;;;;5092093;28;20483;-74
2022/11/03 00:08:41;;;;;;;4.10;1.50;;;;;;;;;;5092220;28;20059;-76
2022/11/03 00:11:09;;;;;;;3.25;1.48;;;;;;;;;;5091837;28;20024;-76
2022/11/03 00:13:36;;;;;;;2.95;1.30;;;;;;;;;;5091966;28;20077;-76
2022/11/03 00:16:02;;;;;;;5.63;1.40;;;;;;;;;;5073192;28;20024;-76
2022/11/03 00:18:28;;;;;;;6.32;1.67;;;;;;;;;;5091864;28;20078;-75
2022/11/03 00:21:04;;;;;;;5.22;1.60;;;;;;;;;;5091603;28;20538;-75
2022/11/03 00:23:32;;;;;;;4.05;1.58;;;;;;;;;;5091645;28;20371;-75
2022/11/03 00:26:27;;;;;;;5.90;1.40;;;;;;;;;;5091355;28;20042;-75
2022/11/03 00:29:00;;;;;;;3.63;1.63;;;;;;;;;;5091418;28;20024;-75
2022/11/03 00:31:28;;;;;;;4.45;1.55;;;;;;;;;;5091238;28;20105;-75
2022/11/03 00:33:54;;;;;;;6.03;1.55;;;;;;;;;;5091383;28;20024;-75
2022/11/03 00:36:25;;;;;;;2.03;1.10;;;;;;;;;;5091076;28;20063;-75
2022/11/03 00:38:51;;;;;;;4.38;1.40;;;;;;;;;;5091400;28;20487;-75
2022/11/03 00:41:17;;;;;;;4.75;1.77;;;;;;;;;;5091318;28;20052;-74
2022/11/03 00:43:42;;;;;;;2.83;1.30;;;;;;;;;;5091200;28;20035;-74
2022/11/03 00:46:08;;;;;;;2.75;1.20;;;;;;;;;;5090923;28;20028;-74
2022/11/03 00:48:35;;;;;;;6.28;1.30;;;;;;;;;;5091106;28;20105;-75
2022/11/03 00:51:02;;;;;;;1.92;1.15;;;;;;;;;;5090888;28;20028;-75
2022/11/03 00:53:29;;;;;;;3.60;1.20;;;;;;;;;;5072825;28;20636;-75
2022/11/03 00:55:54;;;;;;;3.38;1.20;;;;;;;;;;5090695;28;20130;-74
2022/11/03 00:58:20;;;;;;;2.72;1.05;;;;;;;;;;5091289;28;20444;-75
2022/11/03 01:00:45;;;;;;;2.05;1.00;;;;;;;;;;5090761;28;20036;-75
2022/11/03 01:03:11;;;;;;;1.88;0.93;;;;;;;;;;5091082;28;20051;-74
2022/11/03 01:08:32;;;;;;;2.30;1.00;;;;;;;;;;5091027;28;20046;-74
2022/11/03 01:14:00;;;;;;;2.90;1.00;;;;;;;;;;5091358;28;20399;-74
2022/11/03 01:16:26;;;;;;;3.75;1.10;;;;;;;;;;5090366;28;20028;-74
2022/11/03 01:18:52;;;;;;;2.03;1.00;;;;;;;;;;5091163;28;20020;-75
2022/11/03 01:21:18;;;;;;;3.88;1.08;;;;;;;;;;5072280;28;20368;-74
2022/11/03 01:23:43;;;;;;;2.42;1.20;;;;;;;;;;5072362;28;20067;-75
2022/11/03 01:26:11;;;;;;;5.20;1.35;;;;;;;;;;5089999;28;20064;-74
2022/11/03 01:28:38;;;;;;;4.25;1.35;;;;;;;;;;5089924;28;20028;-75
2022/11/03 01:31:10;;;;;;;6.45;1.40;;;;;;;;;;5090286;28;20479;-74
2022/11/03 01:33:36;;;;;;;3.25;1.33;;;;;;;;;;5090541;28;20023;-74
2022/11/03 01:36:01;;;;;;;4.35;1.40;;;;;;;;;;5090000;28;20398;-74
2022/11/03 01:38:30;;;;;;;7.15;1.63;;;;;;;;;;5090458;28;20510;-74
2022/11/03 01:40:55;;;;;;;4.40;1.20;;;;;;;;;;5090169;28;20026;-75
2022/11/03 01:43:22;;;;;;;3.42;1.15;;;;;;;;;;5090149;28;20028;-75
2022/11/03 01:45:52;;;;;;;3.47;1.20;;;;;;;;;;5089778;28;20039;-74
2022/11/03 01:48:19;;;;;;;6.90;1.60;;;;;;;;;;5072071;28;20392;-75
2022/11/03 01:50:46;;;;;;;3.25;1.20;;;;;;;;;;5090350;28;20028;-74
2022/11/03 01:53:15;;;;;;;7.30;1.50;;;;;;;;;;5090146;28;20032;-74
2022/11/03 01:55:40;;;;;;;4.95;1.20;;;;;;;;;;5089771;28;20139;-74
2022/11/03 01:58:29;;;;;;;5.40;1.17;;;;;;;;;;5089963;28;20107;-75
2022/11/03 02:01:00;;;;;;;6.28;1.55;;;;;;;;;;5090194;28;20552;-75
2022/11/03 02:03:28;;;;;;;3.90;1.10;;;;;;;;;;5089898;28;20072;-74
2022/11/03 02:05:55;;;;;;;4.15;1.13;;;;;;;;;;5089873;28;20035;-74
2022/11/03 02:08:33;;;;;;;5.43;1.10;;;;;;;;;;5089742;28;20365;-75
2022/11/03 02:10:58;;;;;;;3.65;1.20;;;;;;;;;;5090037;28;20666;-74
2022/11/03 02:13:26;;;;;;;3.30;1.05;;;;;;;;;;5089651;28;20106;-75
2022/11/03 02:15:55;;;;;;;2.95;1.10;;;;;;;;;;5089720;28;20082;-75
2022/11/03 02:18:25;;;;;;;4.28;1.10;;;;;;;;;;5089764;28;20077;-75
2022/11/03 02:21:02;;;;;;;4.57;0.90;;;;;;;;;;5071848;28;20030;-75
2022/11/03 02:23:42;;;;;;;5.07;1.13;;;;;;;;;;5089743;28;20484;-75
2022/11/03 02:26:10;;;;;;;4.23;1.00;;;;;;;;;;5089695;28;20035;-74
2022/11/03 02:28:36;;;;;;;4.82;1.13;;;;;;;;;;5089681;28;20027;-75
2022/11/03 02:31:26;;;;;;;3.20;1.17;;;;;;;;;;5089858;28;20017;-74
2022/11/03 02:34:04;;;;;;;5.25;1.20;;;;;;;;;;5090283;28;20125;-76
2022/11/03 02:36:32;;;;;;;3.80;0.95;;;;;;;;;;5090040;28;20103;-75
2022/11/03 02:39:15;;;;;;;6.80;1.10;;;;;;;;;;5090028;28;20510;-75
2022/11/03 02:41:42;;;;;;;4.28;1.20;;;;;;;;;;5093478;28;20099;-75
2022/11/03 02:44:16;;;;;;;5.20;1.40;;;;;;;;;;5093428;28;20114;-74
2022/11/03 02:46:44;;;;;;;3.22;1.20;;;;;;;;;;5093348;28;20029;-75
2022/11/03 02:49:09;;;;;;;3.03;1.20;;;;;;;;;;5075186;28;20035;-74
2022/11/03 02:51:35;;;;;;;5.75;1.10;;;;;;;;;;5075244;28;20023;-75
2022/11/03 02:54:06;;;;;;;4.55;1.15;;;;;;;;;;5093328;28;20020;-74
2022/11/03 02:56:38;;;;;;;5.35;1.30;;;;;;;;;;5093076;28;20556;-74
2022/11/03 02:59:08;;;;;;;4.35;1.25;;;;;;;;;;5074892;28;20030;-75
2022/11/03 03:01:45;;;;;;;4.68;1.17;;;;;;;;;;5093191;28;20032;-75
2022/11/03 03:04:34;;;;;;;5.40;1.23;;;;;;;;;;5093126;28;20051;-75
2022/11/03 03:07:04;;;;;;;4.40;1.17;;;;;;;;;;5063871;28;20043;-75
2022/11/03 03:09:36;;;;;;;7.68;1.20;;;;;;;;;;5092025;28;20100;-75
2022/11/03 03:12:03;;;;;;;9.50;1.30;;;;;;;;;;5092752;28;20030;-74
2022/11/03 03:14:37;;;;;;;4.80;1.20;;;;;;;;;;5092977;28;20024;-74
2022/11/03 03:17:17;;;;;;;5.15;1.23;;;;;;;;;;5092995;28;20028;-75
2022/11/03 03:20:08;;;;;;;2.93;1.10;;;;;;;;;;5092879;28;20100;-75
2022/11/03 03:22:41;;;;;;;4.22;1.20;;;;;;;;;;5074492;28;20353;-75
2022/11/03 03:25:12;;;;;;;5.25;1.45;;;;;;;;;;5092946;28;20031;-74
2022/11/03 03:27:42;;;;;;;2.80;1.10;;;;;;;;;;5092281;28;20153;-75
2022/11/03 03:30:08;;;;;;;6.10;1.35;;;;;;;;;;5092924;28;20012;-74
2022/11/03 03:32:38;;;;;;;5.15;1.30;;;;;;;;;;5092462;28;20035;-75
2022/11/03 03:35:07;;;;;;;5.70;1.50;;;;;;;;;;5092648;28;20571;-75
2022/11/03 03:37:36;;;;;;;6.40;1.30;;;;;;;;;;5092028;28;20020;-75
2022/11/03 03:40:06;;;;;;;3.38;1.27;;;;;;;;;;5092586;28;20024;-74
2022/11/03 03:42:33;;;;;;;4.50;1.20;;;;;;;;;;5074092;28;20024;-74
2022/11/03 03:44:59;;;;;;;6.30;1.20;;;;;;;;;;5074427;28;20115;-74
2022/11/03 03:47:30;;;;;;;5.13;1.50;;;;;;;;;;5073842;28;20028;-75
2022/11/03 03:49:56;;;;;;;;;;;;;;;;;;5092877;28;20107;-75
2022/11/03 03:52:22;;;;;;;4.03;1.48;;;;;;;;;;5091932;28;19939;-74
2022/11/03 03:54:48;;;;;;;3.45;1.20;;;;;;;;;;5092051;28;20036;-75
2022/11/03 03:57:15;;;;;;;9.00;1.40;;;;;;;;;;5091603;28;20051;-74
2022/11/03 03:59:44;;;;;;;4.75;1.40;;;;;;;;;;5092091;28;20472;-75
2022/11/03 04:02:10;;;;;;;4.97;1.35;;;;;;;;;;5092184;28;20510;-75
2022/11/03 04:04:36;;;;;;;3.05;1.40;;;;;;;;;;5073790;28;20399;-75
2022/11/03 04:09:48;;;;;;;5.60;1.30;;;;;;;;;;5092172;28;20556;-75
2022/11/03 04:23:16;;;;;;;5.20;1.35;;;;;;;;;;5091846;28;20032;-75
2022/11/03 04:25:47;;;;;;;6.00;1.48;;;;;;;;;;5091640;28;20024;-75
2022/11/03 04:28:14;;;;;;;7.55;1.55;;;;;;;;;;5091217;28;20020;-75
2022/11/03 04:30:39;;;;;;;6.43;1.35;;;;;;;;;;5091441;28;20039;-75
2022/11/03 04:33:13;;;;;;;6.82;1.70;;;;;;;;;;5091149;28;20020;-75
2022/11/03 04:35:39;;;;;;;5.47;1.50;;;;;;;;;;5091316;28;20032;-75
2022/11/03 04:38:20;;;;;;;7.55;1.33;;;;;;;;;;5072811;28;20031;-75
2022/11/03 04:40:47;;;;;;;8.98;1.33;;;;;;;;;;5091864;28;20353;-75
2022/11/03 04:43:15;;;;;;;7.90;1.38;;;;;;;;;;5091694;28;20427;-75
2022/11/03 04:45:43;;;;;;;7.53;1.55;;;;;;;;;;5091393;28;20099;-75
2022/11/03 04:48:23;;;;;;;6.13;1.60;;;;;;;;;;5090975;28;20039;-74
2022/11/03 04:50:53;;;;;;;5.78;1.25;;;;;;;;;;5091410;28;20035;-76
2022/11/03 04:53:20;;;;;;;7.82;1.90;;;;;;;;;;5072808;28;20027;-74
2022/11/03 04:55:48;;;;;;;4.07;1.20;;;;;;;;;;5090990;28;20051;-75
2022/11/03 04:58:25;;;;;;;7.28;1.48;;;;;;;;;;5090550;28;20028;-75
2022/11/03 05:00:53;;;;;;;5.47;1.60;;;;;;;;;;5091197;28;20061;-75
2022/11/03 05:03:26;;;;;;;5.07;1.27;;;;;;;;;;5072120;28;20020;-75
2022/11/03 05:05:51;;;;;;;4.78;1.40;;;;;;;;;;5091075;28;20367;-75
2022/11/03 05:08:18;;;;;;;3.40;1.55;;;;;;;;;;5090725;28;20106;-75
2022/11/03 05:10:45;;;;;;;3.70;1.50;;;;;;;;;;5072652;28;20047;-75
2022/11/03 05:13:17;;;;;;;6.47;1.52;;;;;;;;;;5072245;28;20028;-74
2022/11/03 05:15:44;;;;;;;7.32;1.45;;;;;;;;;;5090846;28;20119;-75
2022/11/03 05:18:30;;;;;;;4.43;1.60;;;;;;;;;;5090410;28;20024;-75
2022/11/03 05:20:57;;;;;;;6.57;1.50;;;;;;;;;;5090772;28;20052;-74
2022/11/03 05:23:22;;;;;;;4.57;1.75;;;;;;;;;;5072485;28;20028;-75
2022/11/03 05:25:58;;;;;;;5.40;1.65;;;;;;;;;;5090541;28;20085;-75
2022/11/03 05:28:41;;;;;;;7.78;1.65;;;;;;;;;;5090185;28;20020;-75
2022/11/03 05:31:26;;;;;;;7.15;1.67;;;;;;;;;;5090717;28;20042;-75
2022/11/03 05:33:55;;;;;;;6.65;1.63;;;;;;;;;;5090519;28;20042;-75
2022/11/03 05:36:28;;;;;;;5.53;1.42;;;;;;;;;;5090470;28;20146;-75
2022/11/03 05:38:57;;;;;;;8.25;2.13;;;;;;;;;;5090134;28;20545;-75
2022/11/03 05:41:31;;;;;;;7.82;1.90;;;;;;;;;;5090612;28;20111;-75
2022/11/03 05:44:02;;;;;;;5.63;1.70;;;;;;;;;;5071881;28;20054;-75
2022/11/03 05:46:30;;;;;;;5.45;1.70;;;;;;;;;;5090518;28;20577;-75
2022/11/03 05:48:57;;;;;;;9.48;1.83;;;;;;;;;;5089783;28;20036;-75
2022/11/03 05:51:28;;;;;;;8.55;1.55;;;;;;;;;;5090496;28;20066;-76
2022/11/03 05:53:59;;;;;;;6.20;2.20;;;;;;;;;;5090001;28;20035;-75
2022/11/03 05:56:24;;;;;;;5.93;1.63;;;;;;;;;;5089821;28;20052;-75
2022/11/03 05:58:53;;;;;;;7.30;1.80;;;;;;;;;;5089736;28;20027;-74
2022/11/03 06:01:31;;;;;;;4.85;1.75;;;;;;;;;;5090212;28;20024;-75
2022/11/03 06:04:00;;;;;;;6.55;1.60;;;;;;;;;;5089897;28;20027;-75
2022/11/03 06:06:36;;;;;;;6.20;1.70;;;;;;;;;;5090018;28;20495;-75
2022/11/03 06:09:09;;;;;;;7.45;1.40;;;;;;;;;;5089613;28;20028;-75
2022/11/03 06:11:36;;;;;;;6.30;1.70;;;;;;;;;;5089974;28;20024;-75
2022/11/03 06:14:11;;;;;;;5.95;1.70;;;;;;;;;;5091048;28;20047;-75
2022/11/03 06:16:42;;;;;;;6.75;1.80;;;;;;;;;;5094112;28;20400;-75
2022/11/03 06:19:27;;;;;;;5.97;1.60;;;;;;;;;;5075508;28;20495;-75
2022/11/03 06:21:58;;;;;;;7.25;1.80;;;;;;;;;;5094033;28;20024;-75
2022/11/03 06:24:25;;;;;;;;;;;;;;;;;;5075932;28;20031;-74
2022/11/03 06:26:51;;;;;;;5.72;1.75;;;;;;;;;;5093619;28;20282;-74
2022/11/03 06:29:18;;;;;;;7.47;1.92;;;;;;;;;;5075508;28;20024;-75
2022/11/03 06:31:47;;;;;;;6.18;1.90;;;;;;;;;;5075667;28;20028;-75
2022/11/03 06:34:28;;;;;;;5.05;1.58;;;;;;;;;;5093652;28;20111;-75
2022/11/03 06:36:56;;;;;;;5.80;2.00;;;;;;;;;;5093671;28;20092;-75
2022/11/03 06:39:22;;;;;;;6.50;1.83;;;;;;;;;;5093501;28;20035;-75
2022/11/03 06:41:48;;;;;;;9.15;1.98;;;;;;;;;;5092234;28;20031;-75
2022/11/03 06:44:31;;;;;;;9.40;1.95;;;;;;;;;;5093433;28;20068;-75
2022/11/03 06:47:05;;;;;;;5.80;1.73;;;;;;;;;;5093469;28;20031;-74
2022/11/03 06:49:34;;;;;;;8.30;1.90;;;;;;;;;;5093398;28;20020;-75
2022/11/03 06:52:24;;;;;;;4.32;1.67;;;;;;;;;;5093626;28;20020;-74
2022/11/03 06:55:20;;;;;;;10.95;2.05;;;;;;;;;;5093368;28;20471;-74
2022/11/03 06:57:50;;;;;;;4.55;2.13;;;;;;;;;;5093320;28;20032;-75
2022/11/03 07:00:16;;;;;;;7.00;1.83;;;;;;;;;;5075088;28;20028;-74
2022/11/03 07:03:00;;;;;;;7.78;2.03;;;;;;;;;;5075106;28;20092;-74
2022/11/03 07:05:27;;;;;;;8.38;2.03;;;;;;;;;;5074944;28;20024;-74
2022/11/03 07:08:02;;;;;;;8.95;2.08;;;;;;;;;;5093031;28;20483;-75
2022/11/03 07:10:30;;;;;;;5.38;1.75;;;;;;;;;;5092936;28;20031;-75
2022/11/03 07:12:59;;;;;;;8.63;1.80;;;;;;;;;;5092905;28;20081;-74
2022/11/03 07:15:26;;;;;;;11.75;2.30;;;;;;;;;;5074435;28;20085;-74
2022/11/03 07:17:53;;;;;;;6.90;2.20;;;;;;;;;;5092820;28;20056;-75
2022/11/03 07:20:18;;;;;;;5.35;1.85;;;;;;;;;;5092583;28;20035;-74
2022/11/03 07:22:45;;;;;;;7.15;1.70;;;;;;;;;;5092915;28;20020;-75
2022/11/03 07:25:20;;;;;;;4.57;1.83;;;;;;;;;;5091847;28;20028;-74
2022/11/03 07:27:49;;;;;;;8.07;1.88;;;;;;;;;;5092472;28;20547;-74
2022/11/03 07:30:18;;;;;;;6.55;2.08;;;;;;;;;;5074270;28;20465;-74
2022/11/03 07:32:43;;;;;;;14.25;2.40;;;;;;;;;;5092899;28;20505;-75
2022/11/03 07:35:27;;;;;;;12.75;2.22;;;;;;;;;;5092496;28;20028;-75
2022/11/03 07:37:53;;;;;;;8.52;2.05;;;;;;;;;;5074293;28;20034;-74
2022/11/03 07:40:22;;;;;;;9.30;2.30;;;;;;;;;;5092348;28;20107;-74
2022/11/03 07:42:49;;;;;;;9.40;2.17;;;;;;;;;;5092556;28;20020;-75
2022/11/03 07:45:33;;;;;;;11.77;2.20;;;;;;;;;;5091927;28;20020;-74
2022/11/03 07:48:10;;;;;;;7.22;1.83;;;;;;;;;;5092445;28;20077;-75
2022/11/03 07:50:37;;;;;;;6.78;2.03;;;;;;;;;;5073766;28;20059;-75
2022/11/03 07:53:12;;;;;;;7.40;2.25;;;;;;;;;;5092182;28;20442;-75
2022/11/03 07:55:38;;;;;;;6.10;1.83;;;;;;;;;;5073451;28;20043;-75
2022/11/03 07:58:19;;;;;;;8.00;2.08;;;;;;;;;;5073683;28;20024;-74
2022/11/03 08:00:44;;;;;;;7.82;2.00;;;;;;;;;;5092099;28;20610;-75
2022/11/03 08:03:24;;;;;;;8.50;2.10;;;;;;;;;;5092260;28;20028;-75
2022/11/03 08:05:49;;;;;;;9.00;2.00;;;;;;;;;;5092025;28;20485;-75
2022/11/03 08:08:15;;;;;;;11.38;2.35;;;;;;;;;;5091798;28;20264;-75
2022/11/03 08:10:40;;;;;;;12.35;2.30;;;;;;;;;;5091721;28;20034;-74
2022/11/03 08:13:06;;;;;;;9.88;2.28;;;;;;;;;;5091586;28;20621;-74
2022/11/03 08:15:31;;;;;;;7.97;2.20;;;;;;;;;;5091539;28;20024;-75
2022/11/03 08:17:56;;;;;;;10.85;2.20;;;;;;;;;;5091716;28;20048;-75
2022/11/03 08:20:22;;;;;;;9.05;2.10;;;;;;;;;;5091595;28;20522;-75
2022/11/03 08:22:47;;;;;;;7.88;2.22;;;;;;;;;;5091914;28;20110;-75
2022/11/03 08:25:12;;;;;;;9.50;2.15;;;;;;;;;;5091608;28;20578;-74
2022/11/03 08:27:38;;;;;;;11.30;2.20;;;;;;;;;;5091203;28;20036;-74
2022/11/03 08:30:04;;;;;;;13.15;2.40;;;;;;;;;;5091446;28;20111;-74
2022/11/03 08:32:29;;;;;;;8.38;2.55;;;;;;;;;;5072988;28;20020;-74
2022/11/03 08:34:55;;;;;;;9.07;2.28;;;;;;;;;;5091361;28;20121;-74
2022/11/03 08:37:20;;;;;;;10.82;2.65;;;;;;;;;;5090011;28;20027;-74
2022/11/03 08:39:45;;;;;;;8.32;2.50;;;;;;;;;;5091223;28;20692;-74
2022/11/03 08:42:11;;;;;;;13.65;2.78;;;;;;;;;;5091212;28;20031;-74
2022/11/03 08:44:36;;;;;;;10.15;2.72;;;;;;;;;;5091259;28;20028;-74
2022/11/03 08:47:02;;;;;;;10.93;2.88;;;;;;;;;;5090959;28;20024;-74
2022/11/03 08:49:27;;;;;;;10.45;2.33;;;;;;;;;;5072618;28;20024;-74
2022/11/03 08:51:52;;;;;;;9.35;2.50;;;;;;;;;;5090692;28;20024;-74
2022/11/03 08:54:18;;;;;;;9.50;2.70;;;;;;;;;;5091134;28;20060;-74
2022/11/03 08:56:45;;;;;;;9.73;2.45;;;;;;;;;;5090745;28;20059;-74
2022/11/03 08:59:10;;;;;;;12.57;2.90;;;;;;;;;;5091125;28;20032;-73
2022/11/03 09:01:36;;;;;;;9.07;2.78;;;;;;;;;;5090732;28;20119;-73
2022/11/03 09:04:02;;;;;;;7.38;2.67;;;;;;;;;;5091120;28;20395;-73
2022/11/03 09:06:27;;;;;;;8.02;2.58;;;;;;;;;;5090689;28;20054;-73
2022/11/03 09:08:53;;;;;;;11.93;2.72;;;;;;;;;;5090743;28;20031;-74
2022/11/03 09:11:18;;;;;;;10.50;2.55;;;;;;;;;;5090457;28;20066;-75
2022/11/03 09:13:43;;;;;;;12.98;2.45;;;;;;;;;;5090786;28;20058;-74
2022/11/03 09:16:09;;;;;;;7.80;2.58;;;;;;;;;;5090445;28;20028;-73
2022/11/03 09:18:34;;;;;;;11.77;2.50;;;;;;;;;;5090835;28;20039;-76
2022/11/03 09:21:00;;;;;;;7.45;2.53;;;;;;;;;;5090949;28;20031;-75
2022/11/03 09:23:25;;;;;;;8.48;2.60;;;;;;;;;;5090765;28;20020;-75
2022/11/03 09:25:51;;;;;;;7.95;2.58;;;;;;;;;;5090382;28;20020;-75
2022/11/03 09:28:17;;;;;;;7.35;2.42;;;;;;;;;;5089937;28;20020;-75
2022/11/03 09:30:42;;;;;;;11.48;2.80;;;;;;;;;;5090988;28;20028;-75
2022/11/03 09:33:07;;;;;;;7.75;2.90;;;;;;;;;;5090681;28;20028;-75
2022/11/03 09:35:33;;;;;;;8.88;2.78;;;;;;;;;;5090677;28;20032;-75
2022/11/03 09:37:58;;;;;;;11.57;3.05;;;;;;;;;;5099816;28;20056;-76
2022/11/03 09:40:26;;;;;;;8.35;3.05;;;;;;;;;;5093044;28;20031;-74
2022/11/03 09:42:52;;;;;;;10.82;3.00;;;;;;;;;;5089992;28;20020;-74
2022/11/03 09:45:17;;;;;;;10.00;3.08;;;;;;;;;;5090200;28;20085;-74
2022/11/03 09:47:45;;;;;;;11.45;3.30;;;;;;;;;;5090089;28;20028;-74
2022/11/03 09:50:18;;;;;;;9.02;2.78;;;;;;;;;;5089660;28;20055;-73
2022/11/03 09:52:43;;;;;;;12.07;3.10;;;;;;;;;;5090130;28;20059;-73
2022/11/03 09:55:14;;;;;;;9.77;2.70;;;;;;;;;;5090090;28;20051;-73
2022/11/03 09:57:40;;;;;;;11.80;2.80;;;;;;;;;;5090036;28;20118;-73
2022/11/03 10:00:15;;;;;;;11.77;2.72;;;;;;;;;;5089959;28;20063;-74
2022/11/03 10:02:42;;;;;;;11.35;3.00;;;;;;;;;;5089735;28;20435;-73
2022/11/03 10:05:12;;;;;;;8.07;2.63;;;;;;;;;;5089989;28;20028;-75
2022/11/03 10:07:37;;;;;;;9.95;2.47;;;;;;;;;;5071763;28;20165;-73
2022/11/03 10:10:04;;;;;;;17.70;2.90;;;;;;;;;;5089965;28;20081;-74
2022/11/03 10:12:36;;;;;;;11.63;2.88;;;;;;;;;;5071471;28;20024;-73
2022/11/03 10:15:02;;;;;;;15.35;2.60;;;;;;;;;;5072008;28;20055;-73
2022/11/03 10:17:29;;;;;;;8.23;2.90;;;;;;;;;;5089804;28;20056;-73
2022/11/03 10:19:57;;;;;;;8.02;2.75;;;;;;;;;;5089692;28;20480;-74
2022/11/03 10:22:22;;;;;;;10.68;2.85;;;;;;;;;;5071480;28;20398;-73
2022/11/03 10:24:49;;;;;;;10.25;2.90;;;;;;;;;;5090091;28;20032;-74
2022/11/03 10:27:24;;;;;;;8.68;2.72;;;;;;;;;;5089504;28;20052;-74
2022/11/03 10:30:11;;;;;;;8.20;2.70;;;;;;;;;;5088334;28;20032;-73
2022/11/03 10:32:37;;;;;;;12.05;3.22;;;;;;;;;;5089416;28;20176;-76
2022/11/03 10:35:32;;;;;;;12.63;3.03;;;;;;;;;;5089742;28;20066;-76
2022/11/03 10:38:26;;;;;;;10.95;2.90;;;;;;;;;;5078471;28;20406;-75
2022/11/03 10:40:52;;;;;;;8.88;2.90;;;;;;;;;;5089547;28;20025;-75
2022/11/03 10:43:17;;;;;;;8.88;2.85;;;;;;;;;;5089380;28;20635;-75
2022/11/03 10:45:43;;;;;;;7.78;2.85;;;;;;;;;;5089833;28;20027;-75
2022/11/03 10:48:09;;;;;;;10.05;2.60;;;;;;;;;;5071380;28;20035;-75
2022/11/03 10:50:35;;;;;;;11.20;3.10;;;;;;;;;;5089501;28;20044;-76
2022/11/03 10:53:02;;;;;;;11.13;3.08;;;;;;;;;;5089547;28;20042;-76
2022/11/03 10:55:27;;;;;;;10.27;3.08;;;;;;;;;;5089313;28;20755;-75
2022/11/03 10:57:56;;;;;;;12.40;3.20;;;;;;;;;;5089140;28;20028;-75
2022/11/03 11:00:23;;;;;;;11.98;2.65;;;;;;;;;;5089514;28;20149;-75
2022/11/03 11:02:55;;;;;;;10.25;3.35;;;;;;;;;;5093740;28;20478;-75
2022/11/03 11:05:22;;;;;;;7.97;2.63;;;;;;;;;;5094653;28;20032;-75
2022/11/03 11:07:50;;;;;;;10.63;2.80;;;;;;;;;;5075407;28;20035;-75
2022/11/03 11:10:21;;;;;;;8.15;2.65;;;;;;;;;;5093026;28;20020;-75
2022/11/03 11:13:17;;;;;;;8.50;2.78;;;;;;;;;;5092797;28;20550;-75
2022/11/03 11:15:44;;;;;;;9.55;2.50;;;;;;;;;;5092903;28;20036;-75
2022/11/03 11:18:30;;;;;;;8.68;2.70;;;;;;;;;;5074741;28;20380;-74
2022/11/03 11:21:00;;;;;;;7.35;2.53;;;;;;;;;;5074565;28;20028;-75
2022/11/03 11:23:28;;;;;;;8.15;2.70;;;;;;;;;;5092893;28;20034;-75
2022/11/03 11:26:09;;;;;;;11.60;2.50;;;;;;;;;;5074742;28;20469;-74
2022/11/03 11:28:38;;;;;;;7.35;2.50;;;;;;;;;;5092591;28;20070;-75
2022/11/03 11:31:26;;;;;;;9.38;2.58;;;;;;;;;;5074389;28;20127;-75
2022/11/03 11:34:09;;;;;;;8.68;2.67;;;;;;;;;;5092318;28;20024;-74
2022/11/03 11:36:36;;;;;;;10.02;2.70;;;;;;;;;;5092787;28;20142;-75
2022/11/03 11:39:12;;;;;;;11.48;2.92;;;;;;;;;;5092246;28;20382;-74
2022/11/03 11:42:05;;;;;;;10.50;2.55;;;;;;;;;;5092644;28;20032;-74
2022/11/03 11:44:41;;;;;;;12.50;3.15;;;;;;;;;;5092404;28;20024;-75
2022/11/03 11:47:27;;;;;;;9.55;3.20;;;;;;;;;;5092509;28;20028;-74
2022/11/03 11:50:15;;;;;;;8.73;2.80;;;;;;;;;;5091915;28;20024;-75
2022/11/03 11:53:00;;;;;;;13.02;3.25;;;;;;;;;;5092047;28;20107;-74
2022/11/03 11:55:40;;;;;;;9.73;3.05;;;;;;;;;;5073901;28;20053;-75
2022/11/03 11:58:15;;;;;;;8.63;2.88;;;;;;;;;;5073690;28;20392;-75
2022/11/03 12:01:00;;;;;;;9.90;2.88;;;;;;;;;;5092057;28;20036;-75
2022/11/03 12:03:29;;;;;;;10.48;3.20;;;;;;;;;;5092018;28;20551;-74
2022/11/03 12:05:54;;;;;;;9.68;2.75;;;;;;;;;;5092231;28;20028;-75
2022/11/03 12:08:27;;;;;;;7.28;2.85;;;;;;;;;;5091936;28;20411;-75
2022/11/03 12:11:01;;;;;;;9.40;3.13;;;;;;;;;;5091828;28;20474;-74
2022/11/03 12:13:51;;;;;;;12.25;2.88;;;;;;;;;;5091184;28;20605;-74
2022/11/03 12:16:36;;;;;;;10.47;2.83;;;;;;;;;;5073782;28;20036;-75
2022/11/03 12:19:36;;;;;;;8.95;3.03;;;;;;;;;;5073509;28;20483;-75
2022/11/03 12:22:04;;;;;;;7.97;3.10;;;;;;;;;;5073708;28;20093;-74
2022/11/03 12:24:29;;;;;;;9.55;3.08;;;;;;;;;;5091492;28;20099;-75
2022/11/03 12:26:56;;;;;;;7.93;3.38;;;;;;;;;;5091637;28;20670;-74
2022/11/03 12:29:21;;;;;;;10.35;3.13;;;;;;;;;;5091248;28;20099;-74
2022/11/03 12:31:47;;;;;;;10.73;2.90;;;;;;;;;;5091602;28;20108;-75
2022/11/03 12:34:13;;;;;;;10.25;2.85;;;;;;;;;;5091316;28;20059;-74
2022/11/03 12:36:39;;;;;;;8.38;2.78;;;;;;;;;;5091622;28;20062;-75
2022/11/03 12:39:04;;;;;;;10.80;2.95;;;;;;;;;;5091441;28;20092;-75
2022/11/03 12:41:29;;;;;;;10.45;3.05;;;;;;;;;;5073131;28;20054;-75
2022/11/03 12:43:55;;;;;;;8.23;2.75;;;;;;;;;;5091066;28;20016;-75
2022/11/03 12:46:21;;;;;;;9.27;3.10;;;;;;;;;;5091166;28;20016;-75
2022/11/03 12:48:47;;;;;;;6.82;2.83;;;;;;;;;;5090992;28;20491;-75
2022/11/03 12:51:17;;;;;;;7.32;2.85;;;;;;;;;;5090975;28;20024;-75
2022/11/03 12:53:44;;;;;;;10.07;2.70;;;;;;;;;;5091157;28;20076;-75
2022/11/03 12:56:11;;;;;;;10.82;2.70;;;;;;;;;;5090896;28;20055;-75
2022/11/03 12:58:37;;;;;;;9.05;2.80;;;;;;;;;;5090678;28;20024;-75
2022/11/03 13:01:03;;;;;;;13.85;3.22;;;;;;;;;;5090964;28;20020;-75
2022/11/03 13:03:28;;;;;;;6.00;2.50;;;;;;;;;;5090657;28;20107;-75
2022/11/03 13:05:54;;;;;;;8.73;2.80;;;;;;;;;;5072575;28;20028;-75
2022/11/03 13:08:20;;;;;;;9.00;2.80;;;;;;;;;;5090820;28;20407;-75
2022/11/03 13:10:45;;;;;;;8.60;3.10;;;;;;;;;;5072417;28;20028;-75
2022/11/03 13:13:11;;;;;;;9.98;2.90;;;;;;;;;;5090745;28;20024;-75
2022/11/03 13:15:36;;;;;;;14.20;2.97;;;;;;;;;;5072428;28;20027;-75
2022/11/03 13:18:04;;;;;;;10.60;2.65;;;;;;;;;;5090740;28;20487;-75
2022/11/03 13:20:31;;;;;;;9.30;2.90;;;;;;;;;;5090189;28;20036;-74
2022/11/03 13:22:56;;;;;;;9.38;2.80;;;;;;;;;;5072056;28;20073;-75
2022/11/03 13:25:23;;;;;;;10.23;2.67;;;;;;;;;;5090062;28;20028;-75
2022/11/03 13:27:52;;;;;;;10.20;2.45;;;;;;;;;;5090497;28;20026;-75
2022/11/03 13:30:21;;;;;;;7.93;2.67;;;;;;;;;;5090183;28;20043;-75
2022/11/03 13:32:47;;;;;;;6.82;2.70;;;;;;;;;;5072452;28;20031;-75
2022/11/03 13:35:13;;;;;;;10.75;2.70;;;;;;;;;;5090307;28;20028;-75
2022/11/03 13:37:38;;;;;;;9.27;2.67;;;;;;;;;;5090428;28;20033;-75
2022/11/03 13:40:05;;;;;;;9.18;2.38;;;;;;;;;;5089956;28;20043;-75
2022/11/03 13:42:30;;;;;;;5.78;2.60;;;;;;;;;;5089926;28;20649;-74
2022/11/03 13:44:56;;;;;;;9.40;2.30;;;;;;;;;;5090085;28;20051;-75
2022/11/03 13:47:22;;;;;;;8.05;2.67;;;;;;;;;;5090211;28;20024;-75
2022/11/03 13:49:51;;;;;;;8.57;2.60;;;;;;;;;;5089984;28;20028;-75
2022/11/03 13:52:20;;;;;;;7.00;2.63;;;;;;;;;;5072179;28;20052;-75
2022/11/03 13:54:45;;;;;;;9.57;3.03;;;;;;;;;;5089890;28;20020;-75
2022/11/03 13:57:11;;;;;;;8.30;2.60;;;;;;;;;;5071709;28;20092;-75
2022/11/03 13:59:37;;;;;;;9.65;3.13;;;;;;;;;;5090007;28;20032;-75
2022/11/03 14:02:03;;;;;;;6.82;2.72;;;;;;;;;;5089910;28;20028;-75
2022/11/03 14:04:29;;;;;;;6.65;2.65;;;;;;;;;;5089779;28;20540;-74
2022/11/03 14:06:54;;;;;;;9.27;2.55;;;;;;;;;;5089965;28;20035;-74
2022/11/03 14:09:20;;;;;;;9.32;2.65;;;;;;;;;;5089735;28;20039;-75
2022/11/03 14:14:30;;;;;;;10.35;3.00;;;;;;;;;;5089290;28;20063;-75
2022/11/03 14:16:55;;;;;;;7.30;2.50;;;;;;;;;;5089816;28;20024;-75
2022/11/03 14:19:22;;;;;;;6.22;2.70;;;;;;;;;;5089776;28;20062;-74
2022/11/03 14:21:48;;;;;;;6.47;2.65;;;;;;;;;;5089734;28;20093;-75
2022/11/03 14:24:14;;;;;;;9.45;2.83;;;;;;;;;;5071542;28;20487;-75
2022/11/03 14:26:40;;;;;;;8.18;2.85;;;;;;;;;;5089487;28;20035;-75
2022/11/03 14:29:05;;;;;;;8.57;2.30;;;;;;;;;;5089885;28;20020;-74
2022/11/03 14:31:31;;;;;;;7.35;2.50;;;;;;;;;;5071452;28;20131;-75
2022/11/03 14:33:56;;;;;;;10.82;2.60;;;;;;;;;;5089733;28;20491;-75
2022/11/03 14:36:22;;;;;;;7.03;2.53;;;;;;;;;;5092861;28;20046;-75
2022/11/03 14:38:47;;;;;;;7.30;2.38;;;;;;;;;;5093695;28;20020;-74
2022/11/03 14:43:57;;;;;;;6.95;2.22;;;;;;;;;;5093476;28;20545;-75
2022/11/03 14:46:22;;;;;;;5.00;2.33;;;;;;;;;;5093502;28;20024;-74
2022/11/03 14:48:48;;;;;;;9.73;2.38;;;;;;;;;;5075330;28;20483;-75
2022/11/03 14:51:13;;;;;;;8.52;2.33;;;;;;;;;;5093002;28;20042;-75
2022/11/03 14:53:39;;;;;;;6.47;2.40;;;;;;;;;;5093365;28;20415;-75
2022/11/03 14:56:05;;;;;;;7.40;2.20;;;;;;;;;;5092797;28;20106;-74
2022/11/03 14:58:30;;;;;;;6.65;2.47;;;;;;;;;;5093126;28;20352;-75
2022/11/03 15:00:56;;;;;;;6.15;2.35;;;;;;;;;;5092882;28;20031;-75
2022/11/03 15:03:21;;;;;;;5.40;2.20;;;;;;;;;;5093184;28;20361;-75
2022/11/03 15:05:48;;;;;;;7.03;2.42;;;;;;;;;;5092928;28;20020;-75
2022/11/03 15:08:16;;;;;;;7.78;2.40;;;;;;;;;;5093771;28;20474;-75
2022/11/03 15:10:42;;;;;;;5.78;2.00;;;;;;;;;;5093145;28;20097;-74
2022/11/03 15:13:08;;;;;;;7.40;2.40;;;;;;;;;;5074888;28;20024;-74
2022/11/03 15:15:34;;;;;;;5.07;2.35;;;;;;;;;;5093016;28;20364;-75
2022/11/03 15:18:01;;;;;;;6.90;2.33;;;;;;;;;;5093223;28;20089;-75
2022/11/03 15:20:27;;;;;;;8.75;2.60;;;;;;;;;;5092738;28;20500;-75